Time;durP1;ratioP1;P1;durP2;ratioP2;P2;SDS_P1;SDS_P2;PMS_P1;PMS_P2;Temp;Humidity;BMP_temperature;BMP_pressure;BME280_temperature;BME280_humidity;BME280_pressure;Samples;Min_cycle;Max_cycle;Signal;HPM_P1;HPM_P2
2022/05/02 00:02:15;;;;;;;;;6.25;6.25;;;;;;;;5140499;27;8795;-71
2022/05/02 00:04:41;;;;;;;;;9.25;7.50;;;;;;;;5141114;27;12669;-71
2022/05/02 00:07:06;;;;;;;;;9.25;6.75;;;;;;;;5141176;27;11530;-72
2022/05/02 00:09:31;;;;;;;;;6.75;6.75;;;;;;;;5141442;27;9087;-72
2022/05/02 00:11:58;;;;;;;;;9.00;6.75;;;;;;;;5140849;27;8784;-71
2022/05/02 00:14:23;;;;;;;;;8.50;6.50;;;;;;;;5140642;27;8788;-70
2022/05/02 00:16:49;;;;;;;;;9.00;7.00;;;;;;;;5140691;27;11481;-70
2022/05/02 00:19:14;;;;;;;;;6.00;6.00;;;;;;;;5140749;27;11509;-72
2022/05/02 00:21:39;;;;;;;;;10.50;9.25;;;;;;;;5138801;27;8807;-70
2022/05/02 00:24:05;;;;;;;;;8.00;8.00;;;;;;;;5128623;27;21653;-70
2022/05/02 00:26:30;;;;;;;;;9.00;7.00;;;;;;;;5127242;27;21476;-71
2022/05/02 00:28:55;;;;;;;;;9.00;8.00;;;;;;;;5127369;27;8912;-71
2022/05/02 00:31:20;;;;;;;;;8.50;5.75;;;;;;;;5127142;27;8911;-70
2022/05/02 00:33:46;;;;;;;;;9.00;7.00;;;;;;;;5130048;27;11437;-69
2022/05/02 00:36:11;;;;;;;;;8.50;7.00;;;;;;;;5128590;27;11512;-69
2022/05/02 00:38:36;;;;;;;;;8.00;7.50;;;;;;;;5128900;27;9547;-68
2022/05/02 00:41:01;;;;;;;;;10.00;7.50;;;;;;;;5130060;27;8869;-70
2022/05/02 00:43:27;;;;;;;;;10.50;8.50;;;;;;;;5127646;27;17381;-69
2022/05/02 00:45:52;;;;;;;;;9.50;8.50;;;;;;;;5128822;27;10295;-69
2022/05/02 00:48:18;;;;;;;;;9.25;6.00;;;;;;;;5128926;27;16262;-69
2022/05/02 00:50:44;;;;;;;;;8.00;7.50;;;;;;;;5127246;27;10271;-69
2022/05/02 00:53:13;;;;;;;;;12.50;7.50;;;;;;;;5128421;27;11382;-67
2022/05/02 00:55:40;;;;;;;;;10.00;7.00;;;;;;;;5138166;27;16318;-69
2022/05/02 00:58:05;;;;;;;;;9.50;9.00;;;;;;;;5140020;27;12345;-69
2022/05/02 01:00:32;;;;;;;;;9.75;9.00;;;;;;;;5139745;27;21827;-69
2022/05/02 01:02:57;;;;;;;;;8.00;8.00;;;;;;;;5140753;27;8776;-68
2022/05/02 01:05:23;;;;;;;;;10.00;9.00;;;;;;;;5140073;27;11426;-69
2022/05/02 01:07:48;;;;;;;;;5.25;5.25;;;;;;;;5139782;27;22536;-69
2022/05/02 01:10:17;;;;;;;;;7.00;6.00;;;;;;;;5137917;27;22776;-69
2022/05/02 01:12:42;;;;;;;;;7.00;7.00;;;;;;;;5140031;27;12296;-69
2022/05/02 01:15:08;;;;;;;;;7.75;7.00;;;;;;;;5140194;27;11452;-69
2022/05/02 01:17:34;;;;;;;;;7.00;6.00;;;;;;;;5139722;27;9595;-69
2022/05/02 01:19:59;;;;;;;;;9.25;8.50;;;;;;;;5139556;27;11459;-69
2022/05/02 01:22:24;;;;;;;;;6.75;6.75;;;;;;;;5139141;27;11444;-70
2022/05/02 01:24:49;;;;;;;;;9.00;8.50;;;;;;;;5138931;27;11452;-69
2022/05/02 01:27:15;;;;;;;;;8.50;7.00;;;;;;;;5139081;27;11422;-69
2022/05/02 01:29:42;;;;;;;;;6.50;5.00;;;;;;;;5140136;27;11374;-69
2022/05/02 01:32:08;;;;;;;;;6.00;5.00;;;;;;;;5139811;27;11405;-69
2022/05/02 01:34:34;;;;;;;;;10.50;6.00;;;;;;;;5139325;27;11546;-69
2022/05/02 01:37:00;;;;;;;;;7.00;7.00;;;;;;;;5138856;27;21639;-70
2022/05/02 01:39:25;;;;;;;;;6.00;6.00;;;;;;;;5140061;27;21398;-68
2022/05/02 01:41:51;;;;;;;;;9.50;6.75;;;;;;;;5139698;27;11442;-68
2022/05/02 01:44:16;;;;;;;;;8.00;8.00;;;;;;;;5138183;27;13264;-68
2022/05/02 01:46:41;;;;;;;;;8.50;8.50;;;;;;;;5139881;27;11556;-69
2022/05/02 01:49:07;;;;;;;;;9.25;6.75;;;;;;;;5139879;27;9583;-68
2022/05/02 01:51:33;;;;;;;;;9.25;7.50;;;;;;;;5139381;27;11960;-69
2022/05/02 01:53:58;;;;;;;;;7.50;7.50;;;;;;;;5139182;27;8991;-69
2022/05/02 01:56:23;;;;;;;;;9.50;9.00;;;;;;;;5139256;27;9027;-68
2022/05/02 01:58:48;;;;;;;;;9.00;9.00;;;;;;;;5138916;27;11314;-69
2022/05/02 02:01:14;;;;;;;;;9.75;6.00;;;;;;;;5137978;27;8795;-68
2022/05/02 02:03:39;;;;;;;;;10.50;9.25;;;;;;;;5139426;27;9664;-69
2022/05/02 02:06:05;;;;;;;;;9.00;9.00;;;;;;;;5139708;27;21382;-69
2022/05/02 02:08:31;;;;;;;;;8.50;8.50;;;;;;;;5139454;27;21382;-69
2022/05/02 02:10:58;;;;;;;;;10.25;9.25;;;;;;;;5140314;27;11505;-68
2022/05/02 02:13:23;;;;;;;;;12.75;9.00;;;;;;;;5141924;27;21933;-69
2022/05/02 02:15:49;;;;;;;;;8.75;8.75;;;;;;;;5142580;27;12153;-69
2022/05/02 02:18:14;;;;;;;;;6.00;6.00;;;;;;;;5142829;27;21369;-68
2022/05/02 02:20:44;;;;;;;;;6.25;6.25;;;;;;;;5143013;27;11293;-68
2022/05/02 02:23:10;;;;;;;;;8.50;8.00;;;;;;;;5142940;27;9015;-68
2022/05/02 02:25:36;;;;;;;;;7.75;6.00;;;;;;;;5141997;27;11569;-68
2022/05/02 02:28:02;;;;;;;;;9.75;9.00;;;;;;;;5142962;27;10334;-69
2022/05/02 02:30:29;;;;;;;;;9.75;7.25;;;;;;;;5142387;27;11417;-69
2022/05/02 02:32:54;;;;;;;;;7.00;5.50;;;;;;;;5142799;27;8886;-68
2022/05/02 02:35:20;;;;;;;;;6.25;6.25;;;;;;;;5142961;27;12044;-69
2022/05/02 02:37:46;;;;;;;;;6.75;6.00;;;;;;;;5142714;27;11377;-69
2022/05/02 02:40:12;;;;;;;;;8.50;7.25;;;;;;;;5142255;27;11453;-69
2022/05/02 02:42:38;;;;;;;;;7.25;7.00;;;;;;;;5140688;27;11813;-69
2022/05/02 02:45:03;;;;;;;;;7.75;5.00;;;;;;;;5141520;27;11781;-69
2022/05/02 02:47:29;;;;;;;;;7.00;7.00;;;;;;;;5141921;27;12249;-68
2022/05/02 02:49:54;;;;;;;;;9.00;8.00;;;;;;;;5140598;27;10005;-69
2022/05/02 02:52:19;;;;;;;;;8.75;8.50;;;;;;;;5142546;27;8784;-69
2022/05/02 02:54:45;;;;;;;;;10.50;9.00;;;;;;;;5141678;27;11479;-70
2022/05/02 02:57:10;;;;;;;;;10.75;10.00;;;;;;;;5142378;27;21519;-69
2022/05/02 02:59:35;;;;;;;;;11.00;9.50;;;;;;;;5141865;27;21768;-69
2022/05/02 03:02:00;;;;;;;;;8.50;8.50;;;;;;;;5141451;27;22123;-68
2022/05/02 03:07:10;;;;;;;;;8.50;8.00;;;;;;;;5141243;27;21508;-68
2022/05/02 03:09:35;;;;;;;;;9.00;7.25;;;;;;;;5141922;27;21352;-69
2022/05/02 03:12:01;;;;;;;;;8.00;5.75;;;;;;;;5141710;27;11297;-69
2022/05/02 03:14:26;;;;;;;;;7.25;7.25;;;;;;;;5141724;27;10819;-69
2022/05/02 03:16:51;;;;;;;;;12.00;9.00;;;;;;;;5141525;27;10538;-69
2022/05/02 03:19:16;;;;;;;;;8.00;8.00;;;;;;;;5140883;27;23128;-69
2022/05/02 03:21:42;;;;;;;;;8.75;8.50;;;;;;;;5141034;27;21771;-68
2022/05/02 03:24:07;;;;;;;;;11.50;9.00;;;;;;;;5141381;27;8811;-69
2022/05/02 03:26:33;;;;;;;;;8.75;8.75;;;;;;;;5140417;27;21369;-69
2022/05/02 03:28:58;;;;;;;;;6.00;6.00;;;;;;;;5140021;27;21612;-70
2022/05/02 03:31:23;;;;;;;;;11.75;8.00;;;;;;;;5142277;27;11801;-69
2022/05/02 03:33:48;;;;;;;;;9.25;9.25;;;;;;;;5141401;27;21570;-69
2022/05/02 03:36:14;;;;;;;;;8.00;8.00;;;;;;;;5141345;27;21617;-69
2022/05/02 03:38:39;;;;;;;;;12.50;8.00;;;;;;;;5141770;27;12495;-69
2022/05/02 03:41:04;;;;;;;;;9.00;8.00;;;;;;;;5141367;27;16361;-69
2022/05/02 03:43:31;;;;;;;;;8.25;6.00;;;;;;;;5141180;27;16356;-69
2022/05/02 03:45:56;;;;;;;;;8.50;8.25;;;;;;;;5140891;27;10916;-69
2022/05/02 03:48:22;;;;;;;;;8.25;6.00;;;;;;;;5140946;27;11510;-69
2022/05/02 03:50:47;;;;;;;;;8.50;6.50;;;;;;;;5140984;27;10464;-69
2022/05/02 03:53:15;;;;;;;;;10.50;8.00;;;;;;;;5141433;27;8788;-69
2022/05/02 03:55:42;;;;;;;;;9.50;9.00;;;;;;;;5140312;27;21640;-69
2022/05/02 03:58:08;;;;;;;;;10.00;8.00;;;;;;;;5141209;27;22601;-69
2022/05/02 04:00:33;;;;;;;;;9.00;9.00;;;;;;;;5140887;27;22873;-69
2022/05/02 04:02:58;;;;;;;;;8.75;8.25;;;;;;;;5141142;27;22696;-68
2022/05/02 04:05:24;;;;;;;;;9.00;8.00;;;;;;;;5139730;27;11955;-68
2022/05/02 04:07:49;;;;;;;;;9.00;8.00;;;;;;;;5140730;27;13044;-69
2022/05/02 04:10:14;;;;;;;;;9.75;9.00;;;;;;;;5141056;27;8795;-69
2022/05/02 04:12:40;;;;;;;;;9.75;9.75;;;;;;;;5141105;27;9782;-68
2022/05/02 04:15:05;;;;;;;;;8.00;8.00;;;;;;;;5132066;27;8800;-68
2022/05/02 04:17:31;;;;;;;;;7.75;7.75;;;;;;;;5128130;27;11532;-69
2022/05/02 04:19:56;;;;;;;;;9.00;8.25;;;;;;;;5128890;27;11353;-68
2022/05/02 04:22:21;;;;;;;;;8.00;8.00;;;;;;;;5129532;27;10471;-68
2022/05/02 04:24:46;;;;;;;;;18.33;17.33;;;;;;;;5125716;27;11817;-81
2022/05/02 04:27:12;;;;;;;;;11.75;7.00;;;;;;;;5130486;27;22337;-79
2022/05/02 04:29:37;;;;;;;;;9.75;8.75;;;;;;;;5129285;27;21324;-81
2022/05/02 04:32:03;;;;;;;;;8.50;8.00;;;;;;;;5129267;27;21521;-80
2022/05/02 04:34:28;;;;;;;;;10.00;7.25;;;;;;;;5130542;27;12414;-81
2022/05/02 04:36:53;;;;;;;;;12.50;10.00;;;;;;;;5123160;27;21374;-81
2022/05/02 04:39:18;;;;;;;;;10.50;8.50;;;;;;;;5121300;27;21662;-80
2022/05/02 04:41:44;;;;;;;;;11.25;9.00;;;;;;;;5121274;28;21652;-79
2022/05/02 04:44:09;;;;;;;;;11.25;8.75;;;;;;;;5121213;28;10672;-79
2022/05/02 04:46:34;;;;;;;;;13.00;8.00;;;;;;;;5121380;27;8783;-78
2022/05/02 04:49:00;;;;;;;;;11.00;8.25;;;;;;;;5121339;27;10519;-79
2022/05/02 04:51:25;;;;;;;;;13.67;13.67;;;;;;;;5120820;27;10707;-79
2022/05/02 04:53:50;;;;;;;;;13.33;11.00;;;;;;;;5118700;28;24615;-80
2022/05/02 04:56:15;;;;;;;;;6.00;6.00;;;;;;;;5120868;27;10893;-81
2022/05/02 04:58:41;;;;;;;;;9.25;8.50;;;;;;;;5121237;27;22099;-79
2022/05/02 05:01:06;;;;;;;;;9.50;8.00;;;;;;;;5141290;27;11338;-79
2022/05/02 05:03:32;;;;;;;;;8.75;8.00;;;;;;;;5141300;27;8802;-80
2022/05/02 05:05:57;;;;;;;;;11.00;8.25;;;;;;;;5124095;27;8951;-78
2022/05/02 05:08:23;;;;;;;;;11.50;8.50;;;;;;;;5133457;27;21723;-78
2022/05/02 05:10:56;;;;;;;;;12.75;8.00;;;;;;;;5131460;27;8872;-81
2022/05/02 05:13:24;;;;;;;;;9.75;8.50;;;;;;;;5133100;27;10762;-82
2022/05/02 05:16:24;;;;;;;;;12.25;9.25;;;;;;;;5127368;27;23939;-83
2022/05/02 05:18:55;;;;;;;;;10.50;8.75;;;;;;;;5123994;27;21668;-76
2022/05/02 05:21:39;;;;;;;;;11.25;9.00;;;;;;;;5129075;27;11452;-76
2022/05/02 05:24:10;;;;;;;;;9.75;9.75;;;;;;;;5129049;27;11469;-76
2022/05/02 05:26:54;;;;;;;;;14.25;9.25;;;;;;;;5129150;27;21396;-76
2022/05/02 05:29:25;;;;;;;;;8.00;8.00;;;;;;;;5128376;27;22685;-76
2022/05/02 05:31:56;;;;;;;;;8.25;6.00;;;;;;;;5129495;27;22644;-77
2022/05/02 05:34:33;;;;;;;;;13.00;12.00;;;;;;;;5131873;27;11478;-76
2022/05/02 05:37:10;;;;;;;;;10.25;8.75;;;;;;;;5131115;27;22543;-77
2022/05/02 05:39:44;;;;;;;;;11.25;9.00;;;;;;;;5139575;27;22021;-77
2022/05/02 05:42:13;;;;;;;;;14.00;12.00;;;;;;;;5141066;27;11473;-80
2022/05/02 05:44:52;;;;;;;;;11.50;9.50;;;;;;;;5140901;27;22605;-80
2022/05/02 05:47:33;;;;;;;;;11.67;11.33;;;;;;;;5143888;27;22076;-81
2022/05/02 05:50:18;;;;;;;;;13.67;11.67;;;;;;;;5144325;27;21667;-80
2022/05/02 05:52:44;;;;;;;;;11.67;11.67;;;;;;;;5098448;27;11540;-77
2022/05/02 05:55:30;;;;;;;;;12.00;9.00;;;;;;;;5122040;28;11524;-79
2022/05/02 05:58:15;;;;;;;;;17.00;11.33;;;;;;;;5123527;27;21402;-76
2022/05/02 06:00:44;;;;;;;;;11.33;11.33;;;;;;;;5121544;28;21870;-82
2022/05/02 06:03:14;;;;;;;;;12.67;8.00;;;;;;;;5123993;27;11473;-79
2022/05/02 06:05:48;;;;;;;;;9.67;9.67;;;;;;;;5122667;28;22080;-81
2022/05/02 06:08:14;;;;;;;;;12.75;11.75;;;;;;;;5122667;27;21358;-80
2022/05/02 06:10:42;;;;;;;;;13.00;12.00;;;;;;;;5122569;27;22430;-79
2022/05/02 06:13:08;;;;;;;;;12.00;9.00;;;;;;;;5123458;27;11524;-81
2022/05/02 06:18:28;;;;;;;;;13.67;12.67;;;;;;;;5122760;28;21403;-80
2022/05/02 06:20:57;;;;;;;;;12.00;12.00;;;;;;;;5122814;28;11499;-87
2022/05/02 06:23:23;;;;;;;;;18.67;14.00;;;;;;;;5123974;27;11598;-86
2022/05/02 06:25:49;;;;;;;;;18.00;16.00;;;;;;;;5133658;27;11562;-83
2022/05/02 06:28:15;;;;;;;;;14.50;12.25;;;;;;;;5132583;27;11502;-85
2022/05/02 06:30:42;;;;;;;;;14.50;12.75;;;;;;;;5131420;27;11503;-83
2022/05/02 06:33:12;;;;;;;;;13.75;12.00;;;;;;;;5135091;27;8830;-80
2022/05/02 06:36:00;;;;;;;;;15.50;13.25;;;;;;;;5133108;27;11933;-82
2022/05/02 06:38:37;;;;;;;;;11.00;10.50;;;;;;;;5101760;27;11490;-82
2022/05/02 06:41:05;;;;;;;;;21.00;16.25;;;;;;;;5131878;27;11678;-80
2022/05/02 06:43:30;;;;;;;;;28.67;22.33;;;;;;;;5131017;27;14579;-81
2022/05/02 06:46:03;;;;;;;;;42.67;35.00;;;;;;;;5132350;27;11620;-80
2022/05/02 06:48:29;;;;;;;;;29.67;25.00;;;;;;;;5132466;27;13534;-82
2022/05/02 06:50:59;;;;;;;;;20.25;17.75;;;;;;;;5132662;27;11531;-83
2022/05/02 06:53:24;;;;;;;;;21.00;20.67;;;;;;;;5130850;27;12512;-79
2022/05/02 06:56:08;;;;;;;;;20.75;19.25;;;;;;;;5130584;27;12177;-80
2022/05/02 06:58:52;;;;;;;;;18.00;15.50;;;;;;;;5133585;27;12549;-82
2022/05/02 07:01:24;;;;;;;;;18.75;16.25;;;;;;;;5133772;27;13877;-80
2022/05/02 07:03:58;;;;;;;;;23.50;18.75;;;;;;;;5132424;27;11656;-82
2022/05/02 07:06:29;;;;;;;;;16.50;16.50;;;;;;;;5130904;27;15599;-83
2022/05/02 07:09:01;;;;;;;;;20.25;19.00;;;;;;;;5125704;27;13522;-76
2022/05/02 07:11:43;;;;;;;;;22.00;19.75;;;;;;;;5130403;27;13333;-75
2022/05/02 07:14:14;;;;;;;;;18.00;18.00;;;;;;;;5131644;27;11623;-78
2022/05/02 07:16:43;;;;;;;;;16.75;16.75;;;;;;;;5129925;27;13308;-77
2022/05/02 07:19:12;;;;;;;;;22.75;19.50;;;;;;;;5131693;27;11884;-76
2022/05/02 07:21:40;;;;;;;;;20.00;17.75;;;;;;;;5132132;27;13383;-75
2022/05/02 07:24:05;;;;;;;;;22.00;18.25;;;;;;;;5129944;27;11634;-76
2022/05/02 07:26:31;;;;;;;;;36.00;29.25;;;;;;;;5131206;27;11662;-76
2022/05/02 07:29:00;;;;;;;;;27.75;21.00;;;;;;;;5132370;27;10437;-77
2022/05/02 07:31:25;;;;;;;;;42.25;34.50;;;;;;;;5130413;27;13545;-75
2022/05/02 07:33:51;;;;;;;;;22.00;20.00;;;;;;;;5130932;27;13235;-77
2022/05/02 07:36:18;;;;;;;;;31.00;26.25;;;;;;;;5131597;27;13614;-76
2022/05/02 07:38:49;;;;;;;;;36.25;31.00;;;;;;;;5129739;27;15222;-75
2022/05/02 07:41:22;;;;;;;;;27.25;24.25;;;;;;;;5132890;27;12305;-75
2022/05/02 07:43:54;;;;;;;;;13.00;11.75;;;;;;;;5129710;27;14485;-75
2022/05/02 07:46:21;;;;;;;;;13.00;9.00;;;;;;;;5132780;27;12277;-77
2022/05/02 07:48:47;;;;;;;;;13.00;13.00;;;;;;;;5129747;27;16376;-76
2022/05/02 07:51:12;;;;;;;;;13.00;13.00;;;;;;;;5130418;27;16543;-76
2022/05/02 07:53:41;;;;;;;;;13.00;11.25;;;;;;;;5131590;27;12228;-76
2022/05/02 07:56:08;;;;;;;;;10.00;10.00;;;;;;;;5128879;27;10826;-76
2022/05/02 07:58:34;;;;;;;;;6.25;6.25;;;;;;;;5130902;27;11501;-77
2022/05/02 08:01:00;;;;;;;;;10.00;8.00;;;;;;;;5132215;27;22258;-77
2022/05/02 08:03:27;;;;;;;;;11.00;9.00;;;;;;;;5131378;27;21418;-76
2022/05/02 08:05:55;;;;;;;;;14.50;13.25;;;;;;;;5130750;27;9757;-78
2022/05/02 08:08:39;;;;;;;;;12.00;9.00;;;;;;;;5126099;27;21471;-77
2022/05/02 08:11:05;;;;;;;;;7.00;7.00;;;;;;;;5130635;27;22268;-77
2022/05/02 08:13:46;;;;;;;;;8.75;7.75;;;;;;;;5130044;27;21415;-78
2022/05/02 08:16:20;;;;;;;;;10.25;10.00;;;;;;;;5121703;27;12950;-77
2022/05/02 08:18:55;;;;;;;;;10.25;9.00;;;;;;;;5129819;27;22270;-77
2022/05/02 08:21:22;;;;;;;;;6.50;5.25;;;;;;;;5136736;27;16543;-77
2022/05/02 08:27:17;;;;;;;;;7.33;7.00;;;;;;;;5142178;27;11353;-77
2022/05/02 08:29:48;;;;;;;;;8.67;8.00;;;;;;;;5141424;27;9160;-79
2022/05/02 08:32:32;;;;;;;;;7.00;6.33;;;;;;;;5142378;27;10334;-79
2022/05/02 08:35:03;;;;;;;;;7.33;7.00;;;;;;;;5138748;27;13725;-78
2022/05/02 08:37:46;;;;;;;;;6.00;6.00;;;;;;;;5132486;27;10530;-77
2022/05/02 08:40:24;;;;;;;;;7.75;7.00;;;;;;;;5131492;27;10893;-77
2022/05/02 08:43:08;;;;;;;;;7.75;7.00;;;;;;;;5128521;27;11701;-78
2022/05/02 08:45:48;;;;;;;;;7.25;7.25;;;;;;;;5129332;27;8838;-77
2022/05/02 08:48:22;;;;;;;;;7.00;7.00;;;;;;;;5130980;27;8985;-78
2022/05/02 08:51:10;;;;;;;;;6.25;6.25;;;;;;;;5130731;27;8787;-78
2022/05/02 08:53:36;;;;;;;;;6.75;6.00;;;;;;;;5127793;27;11406;-78
2022/05/02 08:56:07;;;;;;;;;6.33;6.33;;;;;;;;5131303;27;9271;-78
2022/05/02 08:58:49;;;;;;;;;8.25;7.50;;;;;;;;5131093;27;10209;-79
2022/05/02 09:01:14;;;;;;;;;7.25;6.50;;;;;;;;5131163;27;11442;-78
2022/05/02 09:03:58;;;;;;;;;6.00;6.00;;;;;;;;5129274;27;9859;-77
2022/05/02 09:06:38;;;;;;;;;7.50;7.25;;;;;;;;5129955;27;13734;-78
2022/05/02 09:09:37;;;;;;;;;6.00;6.00;;;;;;;;5129546;27;13604;-78
2022/05/02 09:12:11;;;;;;;;;7.50;6.00;;;;;;;;5084299;27;14647;-77
2022/05/02 09:14:37;;;;;;;;;6.75;5.75;;;;;;;;5130875;27;9360;-78
2022/05/02 09:17:20;;;;;;;;;8.00;8.00;;;;;;;;5128595;27;12268;-78
2022/05/02 09:20:04;;;;;;;;;8.50;6.50;;;;;;;;5127923;27;11396;-77
2022/05/02 09:22:44;;;;;;;;;8.75;7.00;;;;;;;;5131180;27;10754;-78
2022/05/02 09:25:10;;;;;;;;;6.00;6.00;;;;;;;;5129557;27;10547;-78
2022/05/02 09:27:36;;;;;;;;;4.75;4.75;;;;;;;;5128907;27;10552;-76
2022/05/02 09:30:19;;;;;;;;;5.00;5.00;;;;;;;;5119890;27;11664;-76
2022/05/02 09:32:57;;;;;;;;;7.00;7.00;;;;;;;;5119865;27;13339;-77
2022/05/02 09:35:45;;;;;;;;;7.75;7.75;;;;;;;;5123168;27;8910;-78
2022/05/02 09:38:10;;;;;;;;;7.00;7.00;;;;;;;;5130511;27;9007;-77
2022/05/02 09:40:36;;;;;;;;;9.67;9.67;;;;;;;;5122288;27;8908;-75
2022/05/02 09:43:05;;;;;;;;;6.75;6.75;;;;;;;;5124753;27;11882;-78
2022/05/02 09:51:33;;;;;;;;;6.00;6.00;;;;;;;;5126895;27;8787;-78
2022/05/02 09:54:06;;;;;;;;;6.00;6.00;;;;;;;;5121918;27;11534;-78
2022/05/02 09:56:40;;;;;;;;;6.25;6.00;;;;;;;;5128762;27;8807;-78
2022/05/02 09:59:10;;;;;;;;;7.00;7.00;;;;;;;;5126708;27;8845;-77
2022/05/02 10:01:40;;;;;;;;;7.50;6.25;;;;;;;;5128903;27;10592;-77
2022/05/02 10:04:23;;;;;;;;;5.75;5.75;;;;;;;;5130204;27;10513;-78
2022/05/02 10:06:53;;;;;;;;;7.25;7.25;;;;;;;;5134551;27;11540;-77
2022/05/02 10:09:42;;;;;;;;;6.00;6.00;;;;;;;;5140309;27;10860;-78
2022/05/02 10:12:10;;;;;;;;;6.75;6.75;;;;;;;;5140244;27;11838;-80
2022/05/02 10:14:48;;;;;;;;;9.00;6.75;;;;;;;;5140137;27;9683;-80
2022/05/02 10:17:17;;;;;;;;;6.25;6.00;;;;;;;;5140753;27;8811;-80
2022/05/02 10:19:46;;;;;;;;;8.00;6.33;;;;;;;;5139397;27;11754;-81
2022/05/02 10:22:23;;;;;;;;;7.67;6.67;;;;;;;;5139492;27;11883;-79
2022/05/02 10:24:56;;;;;;;;;10.00;6.67;;;;;;;;5128908;27;11813;-80
2022/05/02 10:27:27;;;;;;;;;7.00;7.00;;;;;;;;5128185;27;16327;-77
2022/05/02 10:30:01;;;;;;;;;6.33;6.33;;;;;;;;5127317;27;21563;-77
2022/05/02 10:32:51;;;;;;;;;7.33;6.00;;;;;;;;5129391;27;11382;-77
2022/05/02 10:35:17;;;;;;;;;8.33;7.00;;;;;;;;5128969;27;11697;-78
2022/05/02 10:37:51;;;;;;;;;8.00;8.00;;;;;;;;5132221;27;9185;-78
2022/05/02 10:40:17;;;;;;;;;8.00;8.00;;;;;;;;5131864;27;9590;-77
2022/05/02 10:42:46;;;;;;;;;4.67;4.00;;;;;;;;5131792;27;9259;-78
2022/05/02 10:45:13;;;;;;;;;6.67;6.67;;;;;;;;5131484;27;12677;-78
2022/05/02 10:47:40;;;;;;;;;7.00;7.00;;;;;;;;5132842;27;12221;-77
2022/05/02 10:50:16;;;;;;;;;6.67;6.67;;;;;;;;5130642;27;11373;-78
2022/05/02 10:52:52;;;;;;;;;7.33;7.33;;;;;;;;5131457;27;11590;-78
2022/05/02 10:55:25;;;;;;;;;8.00;8.00;;;;;;;;5132573;27;11925;-78
2022/05/02 10:57:54;;;;;;;;;8.00;7.67;;;;;;;;5131162;27;11379;-78
2022/05/02 11:00:21;;;;;;;;;8.00;8.00;;;;;;;;5132413;27;9389;-78
2022/05/02 11:02:55;;;;;;;;;11.25;9.75;;;;;;;;5134007;27;9419;-78
2022/05/02 11:05:31;;;;;;;;;8.75;7.75;;;;;;;;5128807;27;23701;-79
2022/05/02 11:08:17;;;;;;;;;9.00;9.00;;;;;;;;5130304;27;21444;-79
2022/05/02 11:10:46;;;;;;;;;9.00;9.00;;;;;;;;5131649;27;13741;-78
2022/05/02 11:13:12;;;;;;;;;8.00;8.00;;;;;;;;5132516;27;9770;-78
2022/05/02 11:15:55;;;;;;;;;9.50;7.00;;;;;;;;5135770;27;9768;-77
2022/05/02 11:21:43;;;;;;;;;9.00;8.00;;;;;;;;5063282;28;21383;-76
2022/05/02 11:24:09;;;;;;;;;7.75;7.25;;;;;;;;5058117;28;21728;-78
2022/05/02 11:26:55;;;;;;;;;6.25;6.25;;;;;;;;5058652;28;11555;-75
2022/05/02 11:29:26;;;;;;;;;10.25;8.50;;;;;;;;5061274;28;9561;-76
2022/05/02 11:31:57;;;;;;;;;10.00;8.50;;;;;;;;5098289;27;21726;-76
2022/05/02 11:34:22;;;;;;;;;6.00;6.00;;;;;;;;5129607;27;10036;-76
2022/05/02 11:36:51;;;;;;;;;7.00;7.00;;;;;;;;5132125;27;21383;-74
2022/05/02 11:39:23;;;;;;;;;8.75;6.50;;;;;;;;5130019;27;8767;-75
2022/05/02 11:41:50;;;;;;;;;9.50;8.00;;;;;;;;5132347;27;11790;-76
2022/05/02 11:44:16;;;;;;;;;9.00;7.50;;;;;;;;5130736;27;11633;-75
2022/05/02 11:47:05;;;;;;;;;10.75;10.00;;;;;;;;5130913;27;12743;-76
2022/05/02 11:49:30;;;;;;;;;9.75;9.00;;;;;;;;5132285;27;22814;-76
2022/05/02 11:52:00;;;;;;;;;8.50;7.50;;;;;;;;5141171;27;22129;-76
2022/05/02 11:54:39;;;;;;;;;13.75;9.75;;;;;;;;5139968;27;12846;-76
2022/05/02 11:57:14;;;;;;;;;9.50;9.00;;;;;;;;5120883;28;21955;-76
2022/05/02 11:59:54;;;;;;;;;10.50;9.00;;;;;;;;5130598;27;21576;-75
2022/05/02 12:02:38;;;;;;;;;8.75;7.75;;;;;;;;5130449;27;16777;-75
2022/05/02 12:05:05;;;;;;;;;9.25;8.50;;;;;;;;5130743;27;21987;-75
2022/05/02 12:07:32;;;;;;;;;8.00;8.00;;;;;;;;5129558;27;11535;-75
2022/05/02 12:10:02;;;;;;;;;7.00;7.00;;;;;;;;5129089;27;13564;-76
2022/05/02 12:12:28;;;;;;;;;10.50;8.25;;;;;;;;5129548;27;10692;-75
2022/05/02 12:14:59;;;;;;;;;7.75;6.25;;;;;;;;5129565;27;21651;-74
2022/05/02 12:17:24;;;;;;;;;7.00;7.00;;;;;;;;5128910;27;21397;-74
2022/05/02 12:19:50;;;;;;;;;6.75;6.00;;;;;;;;5130818;27;11382;-74
2022/05/02 12:22:24;;;;;;;;;6.75;6.75;;;;;;;;5130613;27;11437;-74
2022/05/02 12:24:52;;;;;;;;;8.00;8.00;;;;;;;;5128390;27;8816;-74
2022/05/02 12:27:18;;;;;;;;;9.25;9.25;;;;;;;;5130484;27;11825;-75
2022/05/02 12:29:44;;;;;;;;;9.25;9.25;;;;;;;;5129234;27;11383;-74
2022/05/02 12:32:10;;;;;;;;;16.00;15.00;;;;;;;;5130744;27;10263;-75
2022/05/02 12:34:35;;;;;;;;;7.75;7.00;;;;;;;;5130138;27;22606;-74
2022/05/02 12:37:04;;;;;;;;;6.75;6.25;;;;;;;;5128650;27;22378;-74
2022/05/02 12:39:34;;;;;;;;;7.50;7.25;;;;;;;;5130018;27;11406;-74
2022/05/02 12:42:14;;;;;;;;;8.00;7.50;;;;;;;;5124700;27;10612;-74
2022/05/02 12:44:46;;;;;;;;;7.25;7.25;;;;;;;;5126372;27;11585;-76
2022/05/02 12:47:23;;;;;;;;;7.00;7.00;;;;;;;;5132040;27;11642;-76
2022/05/02 12:50:08;;;;;;;;;7.75;7.00;;;;;;;;5128802;27;10100;-76
2022/05/02 12:52:34;;;;;;;;;5.00;5.00;;;;;;;;5129157;27;10216;-76
2022/05/02 12:55:00;;;;;;;;;8.25;7.00;;;;;;;;5127422;27;10978;-76
2022/05/02 13:00:30;;;;;;;;;7.50;7.00;;;;;;;;5130480;27;10084;-76
2022/05/02 13:02:58;;;;;;;;;9.00;7.00;;;;;;;;5129353;27;10358;-76
2022/05/02 13:05:27;;;;;;;;;8.75;8.00;;;;;;;;5129296;27;10111;-76
2022/05/02 13:07:53;;;;;;;;;8.00;7.00;;;;;;;;5127456;27;11556;-76
2022/05/02 13:10:21;;;;;;;;;8.25;6.00;;;;;;;;5118862;27;10366;-76
2022/05/02 13:12:59;;;;;;;;;8.25;6.25;;;;;;;;5115494;28;10499;-77
2022/05/02 13:15:28;;;;;;;;;8.00;6.50;;;;;;;;5120258;27;10561;-77
2022/05/02 13:17:57;;;;;;;;;8.00;7.25;;;;;;;;5120563;27;10337;-77
2022/05/02 13:20:24;;;;;;;;;8.00;7.00;;;;;;;;5119489;27;10533;-77
2022/05/02 13:23:16;;;;;;;;;7.25;6.25;;;;;;;;5120175;27;10377;-75
2022/05/02 13:26:00;;;;;;;;;7.75;7.00;;;;;;;;5116968;27;11410;-76
2022/05/02 13:28:39;;;;;;;;;5.75;5.00;;;;;;;;5118028;28;12542;-76
2022/05/02 13:31:13;;;;;;;;;6.00;6.00;;;;;;;;5119939;27;10175;-77
2022/05/02 13:33:43;;;;;;;;;6.00;5.00;;;;;;;;5119430;27;10533;-77
2022/05/02 13:36:08;;;;;;;;;6.50;5.25;;;;;;;;5119157;27;10286;-76
2022/05/02 13:38:42;;;;;;;;;7.00;7.00;;;;;;;;5119465;28;10357;-76
2022/05/02 13:41:07;;;;;;;;;8.50;8.50;;;;;;;;5122942;27;11604;-76
2022/05/02 13:43:34;;;;;;;;;6.25;6.00;;;;;;;;5129334;27;11553;-76
2022/05/02 13:45:59;;;;;;;;;6.00;5.00;;;;;;;;5128875;27;11924;-76
2022/05/02 13:48:50;;;;;;;;;8.00;5.75;;;;;;;;5140429;27;10188;-77
2022/05/02 13:51:32;;;;;;;;;7.75;7.50;;;;;;;;5131825;27;11447;-77
2022/05/02 13:53:58;;;;;;;;;6.00;5.75;;;;;;;;5127286;27;11648;-76
2022/05/02 13:56:43;;;;;;;;;7.75;7.75;;;;;;;;5129766;27;11456;-77
2022/05/02 13:59:26;;;;;;;;;8.00;7.00;;;;;;;;5128869;27;10515;-77
2022/05/02 14:02:13;;;;;;;;;6.50;6.50;;;;;;;;5129332;27;11817;-77
2022/05/02 14:04:42;;;;;;;;;7.75;6.75;;;;;;;;5129747;27;11413;-76
2022/05/02 14:07:14;;;;;;;;;7.00;7.00;;;;;;;;5129693;27;11430;-77
2022/05/02 14:09:46;;;;;;;;;6.00;6.00;;;;;;;;5124007;27;10541;-72
2022/05/02 14:12:23;;;;;;;;;8.50;7.00;;;;;;;;5125360;27;10337;-74
2022/05/02 14:14:59;;;;;;;;;7.00;6.25;;;;;;;;5132127;27;10746;-75
2022/05/02 14:17:26;;;;;;;;;7.25;6.00;;;;;;;;5132924;27;12794;-75
2022/05/02 14:19:51;;;;;;;;;8.75;7.00;;;;;;;;5131651;27;10538;-75
2022/05/02 14:22:31;;;;;;;;;9.50;7.00;;;;;;;;5131902;27;11569;-76
2022/05/02 14:24:58;;;;;;;;;6.25;6.25;;;;;;;;5133101;27;8892;-75
2022/05/02 14:27:24;;;;;;;;;6.00;6.00;;;;;;;;5132160;27;12649;-75
2022/05/02 14:29:49;;;;;;;;;6.00;6.00;;;;;;;;5131972;27;10414;-75
2022/05/02 14:32:14;;;;;;;;;5.00;5.00;;;;;;;;5134028;27;8812;-75
2022/05/02 14:34:40;;;;;;;;;6.75;6.00;;;;;;;;5131861;27;9515;-75
2022/05/02 14:37:07;;;;;;;;;6.00;6.00;;;;;;;;5130544;27;13580;-75
2022/05/02 14:39:36;;;;;;;;;6.25;6.25;;;;;;;;5133412;27;10481;-74
2022/05/02 14:42:01;;;;;;;;;5.25;5.25;;;;;;;;5131987;27;10561;-77
2022/05/02 14:44:27;;;;;;;;;7.75;7.00;;;;;;;;5124069;27;10348;-76
2022/05/02 14:46:52;;;;;;;;;6.50;6.00;;;;;;;;5122048;27;11873;-78
2022/05/02 14:49:19;;;;;;;;;6.25;6.00;;;;;;;;5122681;27;10537;-79
2022/05/02 14:51:48;;;;;;;;;11.50;7.00;;;;;;;;5122224;27;8771;-75
2022/05/02 14:54:14;;;;;;;;;9.00;8.25;;;;;;;;5136512;27;22001;-79
2022/05/02 14:56:42;;;;;;;;;7.75;5.75;;;;;;;;5140898;27;22713;-78
2022/05/02 14:59:16;;;;;;;;;6.50;6.50;;;;;;;;5140756;27;10468;-78
2022/05/02 15:01:43;;;;;;;;;7.25;7.25;;;;;;;;5142063;27;11393;-81
2022/05/02 15:04:19;;;;;;;;;6.25;6.25;;;;;;;;5141189;27;11595;-82
2022/05/02 15:06:44;;;;;;;;;6.50;5.75;;;;;;;;5137174;27;11516;-81
2022/05/02 15:09:13;;;;;;;;;6.50;6.50;;;;;;;;5132899;27;10518;-80
2022/05/02 15:11:38;;;;;;;;;6.50;6.50;;;;;;;;5127806;27;9667;-74
2022/05/02 15:14:06;;;;;;;;;5.00;5.00;;;;;;;;5135948;27;10184;-84
2022/05/02 15:16:50;;;;;;;;;7.00;6.25;;;;;;;;5139563;27;11849;-77